sensor_id;sensor_type;location;lat;lon;timestamp;temperature;humidity
31639;DHT22;18248;51.522;7.020;2022-10-03T00:02:27;10.80;99.90
31639;DHT22;18248;51.522;7.020;2022-10-03T00:12:16;10.60;99.90
31639;DHT22;18248;51.522;7.020;2022-10-03T00:15:23;10.70;99.90
31639;DHT22;18248;51.522;7.020;2022-10-03T00:21:58;10.60;99.90
31639;DHT22;18248;51.522;7.020;2022-10-03T00:32:18;10.50;99.90
31639;DHT22;18248;51.522;7.020;2022-10-03T00:38:57;10.40;99.90
31639;DHT22;18248;51.522;7.020;2022-10-03T00:52:17;10.30;99.90
31639;DHT22;18248;51.522;7.020;2022-10-03T00:58:50;10.30;99.90
31639;DHT22;18248;51.522;7.020;2022-10-03T01:01:52;10.30;99.90
31639;DHT22;18248;51.522;7.020;2022-10-03T01:15:07;10.20;99.90
31639;DHT22;18248;51.522;7.020;2022-10-03T01:18:40;10.20;99.90
31639;DHT22;18248;51.522;7.020;2022-10-03T01:25:39;10.10;99.90
31639;DHT22;18248;51.522;7.020;2022-10-03T01:32:22;10.10;99.90
31639;DHT22;18248;51.522;7.020;2022-10-03T01:36:18;10.10;99.90
31639;DHT22;18248;51.522;7.020;2022-10-03T01:42:09;10.10;99.90
31639;DHT22;18248;51.522;7.020;2022-10-03T01:49:00;10.00;99.90
31639;DHT22;18248;51.522;7.020;2022-10-03T02:01:52;10.00;99.90
31639;DHT22;18248;51.522;7.020;2022-10-03T02:12:12;9.90;99.90
31639;DHT22;18248;51.522;7.020;2022-10-03T02:15:50;9.80;99.90
31639;DHT22;18248;51.522;7.020;2022-10-03T02:18:59;9.80;99.90
31639;DHT22;18248;51.522;7.020;2022-10-03T02:22:00;9.80;99.90
31639;DHT22;18248;51.522;7.020;2022-10-03T02:25:23;9.80;99.90
31639;DHT22;18248;51.522;7.020;2022-10-03T02:28:35;9.80;99.90
31639;DHT22;18248;51.522;7.020;2022-10-03T02:35:51;9.70;99.90
31639;DHT22;18248;51.522;7.020;2022-10-03T02:43:08;9.70;99.90
31639;DHT22;18248;51.522;7.020;2022-10-03T02:52:41;9.60;99.90
31639;DHT22;18248;51.522;7.020;2022-10-03T02:56:01;9.60;99.90
31639;DHT22;18248;51.522;7.020;2022-10-03T02:59:26;9.60;99.90
31639;DHT22;18248;51.522;7.020;2022-10-03T03:12:54;9.50;99.90
31639;DHT22;18248;51.522;7.020;2022-10-03T03:19:58;9.40;99.90
31639;DHT22;18248;51.522;7.020;2022-10-03T03:33:27;9.30;99.90
31639;DHT22;18248;51.522;7.020;2022-10-03T03:36:38;9.30;99.90
31639;DHT22;18248;51.522;7.020;2022-10-03T03:40:06;9.30;99.90
31639;DHT22;18248;51.522;7.020;2022-10-03T03:46:47;9.30;99.90
31639;DHT22;18248;51.522;7.020;2022-10-03T03:59:50;9.10;99.90
31639;DHT22;18248;51.522;7.020;2022-10-03T04:06:45;9.20;99.90
31639;DHT22;18248;51.522;7.020;2022-10-03T04:09:45;9.20;99.90
31639;DHT22;18248;51.522;7.020;2022-10-03T04:30:13;9.40;99.90
31639;DHT22;18248;51.522;7.020;2022-10-03T04:33:36;9.50;99.90
31639;DHT22;18248;51.522;7.020;2022-10-03T04:37:17;9.50;99.90
31639;DHT22;18248;51.522;7.020;2022-10-03T04:43:51;9.70;99.90
31639;DHT22;18248;51.522;7.020;2022-10-03T04:47:08;9.70;99.90
31639;DHT22;18248;51.522;7.020;2022-10-03T04:57:06;9.80;99.90
31639;DHT22;18248;51.522;7.020;2022-10-03T05:04:18;9.80;99.90
31639;DHT22;18248;51.522;7.020;2022-10-03T05:07:37;9.70;99.90
31639;DHT22;18248;51.522;7.020;2022-10-03T05:13:57;9.80;99.90
31639;DHT22;18248;51.522;7.020;2022-10-03T05:17:23;9.80;99.90
31639;DHT22;18248;51.522;7.020;2022-10-03T05:20:48;9.80;99.90
31639;DHT22;18248;51.522;7.020;2022-10-03T05:34:47;9.90;99.90
31639;DHT22;18248;51.522;7.020;2022-10-03T05:41:24;9.90;99.90
31639;DHT22;18248;51.522;7.020;2022-10-03T05:45:27;9.90;99.90
31639;DHT22;18248;51.522;7.020;2022-10-03T05:54:57;10.00;99.90
31639;DHT22;18248;51.522;7.020;2022-10-03T06:07:51;10.40;99.90
31639;DHT22;18248;51.522;7.020;2022-10-03T06:18:17;10.50;99.90
31639;DHT22;18248;51.522;7.020;2022-10-03T06:25:46;10.70;99.90
31639;DHT22;18248;51.522;7.020;2022-10-03T07:16:47;11.80;99.90
31639;DHT22;18248;51.522;7.020;2022-10-03T07:30:25;12.00;99.90
31639;DHT22;18248;51.522;7.020;2022-10-03T07:47:40;12.20;99.90
31639;DHT22;18248;51.522;7.020;2022-10-03T08:14:56;12.80;99.90
31639;DHT22;18248;51.522;7.020;2022-10-03T08:18:12;13.00;99.90
31639;DHT22;18248;51.522;7.020;2022-10-03T08:32:08;13.60;99.90
31639;DHT22;18248;51.522;7.020;2022-10-03T08:45:37;13.90;99.90
31639;DHT22;18248;51.522;7.020;2022-10-03T08:52:02;14.20;99.90
31639;DHT22;18248;51.522;7.020;2022-10-03T09:18:12;15.30;99.90
31639;DHT22;18248;51.522;7.020;2022-10-03T09:28:18;15.50;99.90
31639;DHT22;18248;51.522;7.020;2022-10-03T09:35:21;15.60;99.90
31639;DHT22;18248;51.522;7.020;2022-10-03T09:45:54;15.70;99.90
31639;DHT22;18248;51.522;7.020;2022-10-03T10:09:55;16.80;99.90
31639;DHT22;18248;51.522;7.020;2022-10-03T10:13:22;17.00;99.90
31639;DHT22;18248;51.522;7.020;2022-10-03T10:37:15;17.40;99.90
31639;DHT22;18248;51.522;7.020;2022-10-03T10:54:32;18.40;99.90
31639;DHT22;18248;51.522;7.020;2022-10-03T11:35:35;18.90;99.90
31639;DHT22;18248;51.522;7.020;2022-10-03T11:39:00;18.80;99.90
31639;DHT22;18248;51.522;7.020;2022-10-03T11:45:12;18.90;99.90
31639;DHT22;18248;51.522;7.020;2022-10-03T11:48:31;18.90;99.90
31639;DHT22;18248;51.522;7.020;2022-10-03T11:51:40;18.90;99.90
31639;DHT22;18248;51.522;7.020;2022-10-03T11:54:42;19.00;99.90
31639;DHT22;18248;51.522;7.020;2022-10-03T11:57:47;19.00;99.90
31639;DHT22;18248;51.522;7.020;2022-10-03T12:01:05;19.20;99.90
31639;DHT22;18248;51.522;7.020;2022-10-03T12:14:27;19.10;99.90
31639;DHT22;18248;51.522;7.020;2022-10-03T12:17:31;19.20;99.90
31639;DHT22;18248;51.522;7.020;2022-10-03T12:20:59;19.10;99.90
31639;DHT22;18248;51.522;7.020;2022-10-03T12:24:14;19.10;99.90
31639;DHT22;18248;51.522;7.020;2022-10-03T12:30:22;19.10;99.90
31639;DHT22;18248;51.522;7.020;2022-10-03T12:36:49;19.50;99.90
31639;DHT22;18248;51.522;7.020;2022-10-03T12:40:30;19.50;99.90
31639;DHT22;18248;51.522;7.020;2022-10-03T12:43:54;19.40;99.90
31639;DHT22;18248;51.522;7.020;2022-10-03T12:48:08;19.30;99.90
31639;DHT22;18248;51.522;7.020;2022-10-03T12:51:01;19.30;99.90
31639;DHT22;18248;51.522;7.020;2022-10-03T12:57:35;19.20;99.90
31639;DHT22;18248;51.522;7.020;2022-10-03T13:04:07;19.30;99.90
31639;DHT22;18248;51.522;7.020;2022-10-03T13:10:48;19.50;99.90
31639;DHT22;18248;51.522;7.020;2022-10-03T13:14:09;19.50;99.90
31639;DHT22;18248;51.522;7.020;2022-10-03T13:17:23;19.40;99.90
31639;DHT22;18248;51.522;7.020;2022-10-03T13:20:54;19.40;99.90
31639;DHT22;18248;51.522;7.020;2022-10-03T13:24:08;19.40;99.90
31639;DHT22;18248;51.522;7.020;2022-10-03T13:27:34;19.40;99.90
31639;DHT22;18248;51.522;7.020;2022-10-03T13:30:57;19.30;99.90
31639;DHT22;18248;51.522;7.020;2022-10-03T13:34:02;19.30;99.90
31639;DHT22;18248;51.522;7.020;2022-10-03T13:37:11;19.30;99.90
31639;DHT22;18248;51.522;7.020;2022-10-03T13:40:13;19.40;99.90
31639;DHT22;18248;51.522;7.020;2022-10-03T13:43:17;19.40;99.90
31639;DHT22;18248;51.522;7.020;2022-10-03T13:46:32;19.40;99.90
31639;DHT22;18248;51.522;7.020;2022-10-03T13:49:43;19.60;99.90
31639;DHT22;18248;51.522;7.020;2022-10-03T13:56:14;20.00;99.90
31639;DHT22;18248;51.522;7.020;2022-10-03T13:59:38;20.30;99.90
31639;DHT22;18248;51.522;7.020;2022-10-03T14:13:06;20.80;99.90
31639;DHT22;18248;51.522;7.020;2022-10-03T14:16:36;20.60;99.90
31639;DHT22;18248;51.522;7.020;2022-10-03T14:23:05;20.50;99.90
31639;DHT22;18248;51.522;7.020;2022-10-03T14:26:18;20.60;99.90
31639;DHT22;18248;51.522;7.020;2022-10-03T14:29:26;20.60;99.90
31639;DHT22;18248;51.522;7.020;2022-10-03T14:45:56;20.10;99.90
31639;DHT22;18248;51.522;7.020;2022-10-03T14:48:57;20.10;99.90
31639;DHT22;18248;51.522;7.020;2022-10-03T14:52:12;19.90;99.90
31639;DHT22;18248;51.522;7.020;2022-10-03T14:58:20;19.90;99.90
31639;DHT22;18248;51.522;7.020;2022-10-03T15:01:24;19.70;99.90
31639;DHT22;18248;51.522;7.020;2022-10-03T15:04:35;19.70;99.90
31639;DHT22;18248;51.522;7.020;2022-10-03T15:07:43;19.60;99.90
31639;DHT22;18248;51.522;7.020;2022-10-03T15:10:43;19.60;99.90
31639;DHT22;18248;51.522;7.020;2022-10-03T15:13:47;19.60;99.90
31639;DHT22;18248;51.522;7.020;2022-10-03T15:16:53;19.60;99.90
31639;DHT22;18248;51.522;7.020;2022-10-03T15:19:54;19.60;99.90
31639;DHT22;18248;51.522;7.020;2022-10-03T15:22:56;19.60;99.90
31639;DHT22;18248;51.522;7.020;2022-10-03T15:25:56;19.60;99.90
31639;DHT22;18248;51.522;7.020;2022-10-03T15:29:01;19.60;99.90
31639;DHT22;18248;51.522;7.020;2022-10-03T15:32:04;19.60;99.90
31639;DHT22;18248;51.522;7.020;2022-10-03T15:35:06;19.50;99.90
31639;DHT22;18248;51.522;7.020;2022-10-03T15:38:14;19.40;99.90
31639;DHT22;18248;51.522;7.020;2022-10-03T15:41:35;19.40;99.90
31639;DHT22;18248;51.522;7.020;2022-10-03T15:44:58;19.20;99.90
31639;DHT22;18248;51.522;7.020;2022-10-03T15:48:00;19.10;99.90
31639;DHT22;18248;51.522;7.020;2022-10-03T15:51:16;19.00;99.90
31639;DHT22;18248;51.522;7.020;2022-10-03T15:54:26;18.90;99.90
31639;DHT22;18248;51.522;7.020;2022-10-03T15:57:30;18.80;99.90
31639;DHT22;18248;51.522;7.020;2022-10-03T16:00:32;18.80;99.90
31639;DHT22;18248;51.522;7.020;2022-10-03T16:03:54;18.70;99.90
31639;DHT22;18248;51.522;7.020;2022-10-03T16:10:35;18.60;99.90
31639;DHT22;18248;51.522;7.020;2022-10-03T16:13:40;18.60;99.90
31639;DHT22;18248;51.522;7.020;2022-10-03T16:16:48;18.50;99.90
31639;DHT22;18248;51.522;7.020;2022-10-03T16:20:13;18.50;99.90
31639;DHT22;18248;51.522;7.020;2022-10-03T16:23:19;18.50;99.90
31639;DHT22;18248;51.522;7.020;2022-10-03T16:26:32;18.40;99.90
31639;DHT22;18248;51.522;7.020;2022-10-03T16:29:35;18.30;99.90
31639;DHT22;18248;51.522;7.020;2022-10-03T16:32:48;18.30;99.90
31639;DHT22;18248;51.522;7.020;2022-10-03T16:36:00;18.20;99.90
31639;DHT22;18248;51.522;7.020;2022-10-03T16:39:02;18.20;99.90
31639;DHT22;18248;51.522;7.020;2022-10-03T16:42:16;18.10;99.90
31639;DHT22;18248;51.522;7.020;2022-10-03T16:45:23;18.00;99.90
31639;DHT22;18248;51.522;7.020;2022-10-03T16:48:27;17.90;99.90
31639;DHT22;18248;51.522;7.020;2022-10-03T16:52:08;17.80;99.90
31639;DHT22;18248;51.522;7.020;2022-10-03T16:58:24;17.60;99.90
31639;DHT22;18248;51.522;7.020;2022-10-03T17:01:39;17.40;99.90
31639;DHT22;18248;51.522;7.020;2022-10-03T17:04:59;17.20;99.90
31639;DHT22;18248;51.522;7.020;2022-10-03T17:08:00;17.20;99.90
31639;DHT22;18248;51.522;7.020;2022-10-03T17:11:02;17.00;99.90
31639;DHT22;18248;51.522;7.020;2022-10-03T17:14:05;16.90;99.90
31639;DHT22;18248;51.522;7.020;2022-10-03T17:17:22;16.70;99.90
31639;DHT22;18248;51.522;7.020;2022-10-03T17:20:36;16.50;99.90
31639;DHT22;18248;51.522;7.020;2022-10-03T17:23:39;16.40;99.90
31639;DHT22;18248;51.522;7.020;2022-10-03T17:26:45;16.30;99.90
31639;DHT22;18248;51.522;7.020;2022-10-03T17:29:59;16.20;99.90
31639;DHT22;18248;51.522;7.020;2022-10-03T17:33:20;16.20;99.90
31639;DHT22;18248;51.522;7.020;2022-10-03T17:39:52;15.90;99.90
31639;DHT22;18248;51.522;7.020;2022-10-03T17:42:56;15.80;99.90
31639;DHT22;18248;51.522;7.020;2022-10-03T17:46:11;15.60;99.90
31639;DHT22;18248;51.522;7.020;2022-10-03T17:49:47;15.50;99.90
31639;DHT22;18248;51.522;7.020;2022-10-03T17:52:48;15.40;99.90
31639;DHT22;18248;51.522;7.020;2022-10-03T17:55:53;15.30;99.90
31639;DHT22;18248;51.522;7.020;2022-10-03T17:59:03;15.20;99.90
31639;DHT22;18248;51.522;7.020;2022-10-03T18:02:18;15.20;99.90
31639;DHT22;18248;51.522;7.020;2022-10-03T18:05:20;15.20;99.90
31639;DHT22;18248;51.522;7.020;2022-10-03T18:08:29;15.20;99.90
31639;DHT22;18248;51.522;7.020;2022-10-03T18:11:32;15.10;99.90
31639;DHT22;18248;51.522;7.020;2022-10-03T18:15:04;15.00;99.90
31639;DHT22;18248;51.522;7.020;2022-10-03T18:18:34;14.90;99.90
31639;DHT22;18248;51.522;7.020;2022-10-03T18:28:49;14.60;99.90
31639;DHT22;18248;51.522;7.020;2022-10-03T18:31:53;14.60;99.90
31639;DHT22;18248;51.522;7.020;2022-10-03T18:35:14;14.50;99.90
31639;DHT22;18248;51.522;7.020;2022-10-03T18:38:27;14.40;99.90
31639;DHT22;18248;51.522;7.020;2022-10-03T18:41:27;14.40;99.90
31639;DHT22;18248;51.522;7.020;2022-10-03T18:44:28;14.40;99.90
31639;DHT22;18248;51.522;7.020;2022-10-03T18:47:48;14.30;99.90
31639;DHT22;18248;51.522;7.020;2022-10-03T18:51:07;14.30;99.90
31639;DHT22;18248;51.522;7.020;2022-10-03T19:04:00;14.00;99.90
31639;DHT22;18248;51.522;7.020;2022-10-03T19:07:16;13.90;99.90
31639;DHT22;18248;51.522;7.020;2022-10-03T19:10:41;13.90;99.90
31639;DHT22;18248;51.522;7.020;2022-10-03T19:17:48;13.90;99.90
31639;DHT22;18248;51.522;7.020;2022-10-03T19:20:52;13.90;99.90
31639;DHT22;18248;51.522;7.020;2022-10-03T19:24:01;13.90;99.90
31639;DHT22;18248;51.522;7.020;2022-10-03T19:27:09;13.90;99.90
31639;DHT22;18248;51.522;7.020;2022-10-03T19:30:11;13.90;99.90
31639;DHT22;18248;51.522;7.020;2022-10-03T19:33:23;13.80;99.90
31639;DHT22;18248;51.522;7.020;2022-10-03T19:36:28;13.70;99.90
31639;DHT22;18248;51.522;7.020;2022-10-03T19:39:29;13.60;99.90
31639;DHT22;18248;51.522;7.020;2022-10-03T19:42:45;13.50;99.90
31639;DHT22;18248;51.522;7.020;2022-10-03T19:45:48;13.60;99.90
31639;DHT22;18248;51.522;7.020;2022-10-03T19:52:17;13.60;99.90
31639;DHT22;18248;51.522;7.020;2022-10-03T19:55:22;13.60;99.90
31639;DHT22;18248;51.522;7.020;2022-10-03T19:58:23;13.60;99.90
31639;DHT22;18248;51.522;7.020;2022-10-03T20:01:22;13.60;99.90
31639;DHT22;18248;51.522;7.020;2022-10-03T20:04:32;13.50;99.90
31639;DHT22;18248;51.522;7.020;2022-10-03T20:07:43;13.50;99.90
31639;DHT22;18248;51.522;7.020;2022-10-03T20:10:58;13.40;99.90
31639;DHT22;18248;51.522;7.020;2022-10-03T20:14:00;13.40;99.90
31639;DHT22;18248;51.522;7.020;2022-10-03T20:17:08;13.30;99.90
31639;DHT22;18248;51.522;7.020;2022-10-03T20:20:10;13.20;99.90
31639;DHT22;18248;51.522;7.020;2022-10-03T20:23:16;13.20;99.90
31639;DHT22;18248;51.522;7.020;2022-10-03T20:26:34;13.10;99.90
31639;DHT22;18248;51.522;7.020;2022-10-03T20:29:44;13.10;99.90
31639;DHT22;18248;51.522;7.020;2022-10-03T20:32:45;13.00;99.90
31639;DHT22;18248;51.522;7.020;2022-10-03T20:35:56;12.80;99.90
31639;DHT22;18248;51.522;7.020;2022-10-03T20:39:20;12.70;99.90
31639;DHT22;18248;51.522;7.020;2022-10-03T20:42:24;12.70;99.90
31639;DHT22;18248;51.522;7.020;2022-10-03T20:45:26;12.70;99.90
31639;DHT22;18248;51.522;7.020;2022-10-03T20:48:31;12.60;99.90
31639;DHT22;18248;51.522;7.020;2022-10-03T20:55:01;12.50;99.90
31639;DHT22;18248;51.522;7.020;2022-10-03T20:58:11;12.50;99.90
31639;DHT22;18248;51.522;7.020;2022-10-03T21:01:21;12.50;99.90
31639;DHT22;18248;51.522;7.020;2022-10-03T21:04:37;12.50;99.90
31639;DHT22;18248;51.522;7.020;2022-10-03T21:07:48;12.40;99.90
31639;DHT22;18248;51.522;7.020;2022-10-03T21:10:54;12.40;99.90
31639;DHT22;18248;51.522;7.020;2022-10-03T21:13:56;12.40;99.90
31639;DHT22;18248;51.522;7.020;2022-10-03T21:16:56;12.40;99.90
31639;DHT22;18248;51.522;7.020;2022-10-03T21:19:59;12.30;99.90
31639;DHT22;18248;51.522;7.020;2022-10-03T21:23:02;12.30;99.90
31639;DHT22;18248;51.522;7.020;2022-10-03T21:26:05;12.30;99.90
31639;DHT22;18248;51.522;7.020;2022-10-03T21:32:37;12.30;99.90
31639;DHT22;18248;51.522;7.020;2022-10-03T21:35:42;12.30;99.90
31639;DHT22;18248;51.522;7.020;2022-10-03T21:38:41;12.30;99.90
31639;DHT22;18248;51.522;7.020;2022-10-03T21:58:48;12.20;99.90
31639;DHT22;18248;51.522;7.020;2022-10-03T22:01:53;12.30;99.90
31639;DHT22;18248;51.522;7.020;2022-10-03T22:05:00;12.20;99.90
31639;DHT22;18248;51.522;7.020;2022-10-03T22:08:17;12.10;99.90
31639;DHT22;18248;51.522;7.020;2022-10-03T22:14:44;12.00;99.90
31639;DHT22;18248;51.522;7.020;2022-10-03T22:17:57;12.00;99.90
31639;DHT22;18248;51.522;7.020;2022-10-03T22:21:17;12.00;99.90
31639;DHT22;18248;51.522;7.020;2022-10-03T22:24:21;11.90;99.90
31639;DHT22;18248;51.522;7.020;2022-10-03T22:27:40;11.80;99.90
31639;DHT22;18248;51.522;7.020;2022-10-03T22:30:45;11.80;99.90
31639;DHT22;18248;51.522;7.020;2022-10-03T22:36:51;11.80;99.90
31639;DHT22;18248;51.522;7.020;2022-10-03T22:39:51;11.70;99.90
31639;DHT22;18248;51.522;7.020;2022-10-03T22:42:53;11.60;99.90
31639;DHT22;18248;51.522;7.020;2022-10-03T22:45:54;11.50;99.90
31639;DHT22;18248;51.522;7.020;2022-10-03T22:49:03;11.60;99.90
31639;DHT22;18248;51.522;7.020;2022-10-03T22:52:04;11.60;99.90
31639;DHT22;18248;51.522;7.020;2022-10-03T22:55:07;11.60;99.90
31639;DHT22;18248;51.522;7.020;2022-10-03T22:58:07;11.50;99.90
31639;DHT22;18248;51.522;7.020;2022-10-03T23:01:06;11.60;99.90
31639;DHT22;18248;51.522;7.020;2022-10-03T23:04:07;11.60;99.90
31639;DHT22;18248;51.522;7.020;2022-10-03T23:10:26;11.50;99.90
31639;DHT22;18248;51.522;7.020;2022-10-03T23:13:38;11.50;99.90
31639;DHT22;18248;51.522;7.020;2022-10-03T23:20:19;11.50;99.90
31639;DHT22;18248;51.522;7.020;2022-10-03T23:23:31;11.50;99.90
31639;DHT22;18248;51.522;7.020;2022-10-03T23:27:09;11.60;99.90
31639;DHT22;18248;51.522;7.020;2022-10-03T23:36:58;11.70;99.90
31639;DHT22;18248;51.522;7.020;2022-10-03T23:43:36;11.60;99.90
31639;DHT22;18248;51.522;7.020;2022-10-03T23:46:29;11.70;99.90
31639;DHT22;18248;51.522;7.020;2022-10-03T23:49:28;11.60;99.90
31639;DHT22;18248;51.522;7.020;2022-10-03T23:52:30;11.70;99.90
31639;DHT22;18248;51.522;7.020;2022-10-03T23:55:33;11.70;99.90
31639;DHT22;18248;51.522;7.020;2022-10-03T23:58:35;11.70;99.90
